createdAt,value
2023-05-14T00:01:08.499Z,75.55
2023-05-14T00:04:01.123Z,75.52
2023-05-14T00:06:54.875Z,75.58
2023-05-14T00:09:55.464Z,75.59
2023-05-14T00:12:46.223Z,75.59
2023-05-14T00:15:57.153Z,75.80
2023-05-14T00:19:04.043Z,75.75
2023-05-14T00:22:14.708Z,75.85
2023-05-14T00:25:25.446Z,75.79
2023-05-14T00:28:16.079Z,75.74
2023-05-14T00:31:10.537Z,75.78
2023-05-14T00:34:08.838Z,75.54
2023-05-14T00:37:02.187Z,75.34
2023-05-14T00:39:57.297Z,75.26
2023-05-14T00:42:47.916Z,75.01
2023-05-14T00:45:38.713Z,74.97
2023-05-14T00:48:49.623Z,74.89
2023-05-14T00:51:46.978Z,74.96
2023-05-14T00:54:58.364Z,74.93
2023-05-14T00:57:59.478Z,74.86
2023-05-14T01:01:10.809Z,74.81
2023-05-14T01:04:12.105Z,74.90
2023-05-14T01:07:10.692Z,74.92
2023-05-14T01:10:04.267Z,74.72
2023-05-14T01:13:10.152Z,74.70
2023-05-14T01:16:13.824Z,74.80
2023-05-14T01:19:22.722Z,74.77
2023-05-14T01:22:19.431Z,74.80
2023-05-14T01:25:19.212Z,74.82
2023-05-14T01:28:20.252Z,74.93
2023-05-14T01:31:16.451Z,74.93
2023-05-14T01:34:08.127Z,74.96
2023-05-14T01:36:59.334Z,74.99
2023-05-14T01:40:11.919Z,74.74
2023-05-14T01:43:03.764Z,74.98
2023-05-14T01:46:06.221Z,74.99
2023-05-14T01:49:05.036Z,75.06
2023-05-14T01:52:16.213Z,75.17
2023-05-14T01:55:27.098Z,75.21
2023-05-14T01:58:32.751Z,75.16
2023-05-14T02:01:26.796Z,75.40
2023-05-14T02:04:21.117Z,75.70
2023-05-14T02:07:22.089Z,75.97
2023-05-14T02:10:18.205Z,76.05
2023-05-14T02:13:18.411Z,76.36
2023-05-14T02:16:20.616Z,76.78
2023-05-14T02:19:31.419Z,76.89
2023-05-14T02:22:24.418Z,76.99
2023-05-14T02:25:15.149Z,77.13
2023-05-14T02:28:07.949Z,77.32
2023-05-14T02:31:02.503Z,77.41
2023-05-14T02:34:06.627Z,77.55
2023-05-14T02:37:05.112Z,77.73
2023-05-14T02:40:10.128Z,77.91
2023-05-14T02:43:20.499Z,78.16
2023-05-14T02:46:29.928Z,78.46
2023-05-14T02:49:23.045Z,78.60
2023-05-14T02:52:33.809Z,78.81
2023-05-14T02:55:35.458Z,78.98
2023-05-14T02:58:46.272Z,79.12
2023-05-14T03:01:46.524Z,79.22
2023-05-14T03:04:57.765Z,79.25
2023-05-14T03:07:53.806Z,79.29
2023-05-14T03:10:54.556Z,79.36
2023-05-14T03:13:55.132Z,79.24
2023-05-14T03:16:46.177Z,79.09
2023-05-14T03:19:57.332Z,79.13
2023-05-14T03:23:01.054Z,78.90
2023-05-14T03:25:51.712Z,78.81
2023-05-14T03:28:51.490Z,78.59
2023-05-14T03:32:02.426Z,78.63
2023-05-14T03:35:13.785Z,78.76
2023-05-14T03:38:25.013Z,78.94
2023-05-14T03:41:20.134Z,79.07
2023-05-14T03:44:14.236Z,79.03
2023-05-14T03:47:25.001Z,79.31
2023-05-14T03:50:18.663Z,79.40
2023-05-14T03:53:29.656Z,79.57
2023-05-14T03:56:33.440Z,79.81
2023-05-14T03:59:44.451Z,79.97
2023-05-14T04:02:46.378Z,80.31
2023-05-14T04:05:40.672Z,80.29
2023-05-14T04:08:51.379Z,80.54
2023-05-14T04:12:02.443Z,80.73
2023-05-14T04:15:13.931Z,81.02
2023-05-14T04:18:05.052Z,81.25
2023-05-14T04:20:59.247Z,81.30
2023-05-14T04:24:10.327Z,81.66
2023-05-14T04:27:01.328Z,81.65
2023-05-14T04:29:56.587Z,81.62
2023-05-14T04:32:59.103Z,81.43
2023-05-14T04:36:08.852Z,81.00
2023-05-14T04:39:10.038Z,80.79
2023-05-14T04:42:13.673Z,80.72
2023-05-14T04:45:18.790Z,80.45
2023-05-14T04:48:12.387Z,80.30
2023-05-14T04:51:23.076Z,80.11
2023-05-14T04:54:33.875Z,80.08
2023-05-14T04:57:29.555Z,80.32
2023-05-14T05:00:25.560Z,80.41
2023-05-14T05:03:16.374Z,80.49
2023-05-14T05:06:16.927Z,80.56
2023-05-14T05:09:10.315Z,80.65
2023-05-14T05:12:09.016Z,80.66
2023-05-14T05:15:09.755Z,80.75
2023-05-14T05:18:03.201Z,80.87
2023-05-14T05:20:59.912Z,81.01
2023-05-14T05:23:53.835Z,80.91
2023-05-14T05:26:44.694Z,80.98
2023-05-14T05:29:38.308Z,81.19
2023-05-14T05:32:47.872Z,81.55
2023-05-14T05:35:58.885Z,82.10
2023-05-14T05:38:49.675Z,82.19
2023-05-14T05:41:43.483Z,82.48
2023-05-14T05:44:36.305Z,82.42
2023-05-14T05:47:30.473Z,82.26
2023-05-14T05:50:25.102Z,81.74
2023-05-14T05:53:27.533Z,81.41
2023-05-14T05:56:29.418Z,80.97
2023-05-14T05:59:31.666Z,80.76
2023-05-14T06:02:41.089Z,80.62
2023-05-14T06:05:37.932Z,80.36
2023-05-14T06:08:41.498Z,80.11
2023-05-14T06:11:52.638Z,79.97
2023-05-14T06:14:46.113Z,80.05
2023-05-14T06:17:41.907Z,80.27
2023-05-14T06:20:42.991Z,80.22
2023-05-14T06:23:33.614Z,80.38
2023-05-14T06:26:24.440Z,80.41
2023-05-14T06:29:19.999Z,80.47
2023-05-14T06:32:10.899Z,80.56
2023-05-14T06:35:04.299Z,80.57
2023-05-14T06:38:01.745Z,80.64
2023-05-14T06:40:55.282Z,80.47
2023-05-14T06:43:46.497Z,80.12
2023-05-14T06:46:40.129Z,79.74
2023-05-14T06:49:33.721Z,79.18
2023-05-14T06:52:29.080Z,78.81
2023-05-14T06:55:19.790Z,78.31
2023-05-14T06:58:15.733Z,78.47
2023-05-14T07:01:09.820Z,78.01
2023-05-14T07:04:08.077Z,77.63
2023-05-14T07:07:00.054Z,77.01
2023-05-14T07:09:51.223Z,76.61
2023-05-14T07:13:02.083Z,75.86
2023-05-14T07:15:57.508Z,75.54
2023-05-14T07:18:48.328Z,75.16
2023-05-14T07:21:41.926Z,74.88
2023-05-14T07:24:32.889Z,74.50
2023-05-14T07:27:28.461Z,74.11
2023-05-14T07:30:28.965Z,73.88
2023-05-14T07:33:22.334Z,73.59
2023-05-14T07:36:12.976Z,73.47
2023-05-14T07:39:06.743Z,73.14
2023-05-14T07:41:59.419Z,72.74
2023-05-14T07:45:01.104Z,72.53
2023-05-14T07:47:56.944Z,72.26
2023-05-14T07:50:49.705Z,71.65
2023-05-14T07:53:43.464Z,71.25
2023-05-14T07:56:34.031Z,70.90
2023-05-14T07:59:24.736Z,70.59
2023-05-14T08:02:18.259Z,69.25
2023-05-14T08:05:29.089Z,68.06
2023-05-14T08:08:27.591Z,67.22
2023-05-14T08:11:19.785Z,66.74
2023-05-14T08:14:14.383Z,66.06
2023-05-14T08:17:05.325Z,65.76
2023-05-14T08:19:56.158Z,65.39
2023-05-14T08:22:49.293Z,64.53
2023-05-14T08:25:39.931Z,63.80
2023-05-14T08:28:31.859Z,63.44
2023-05-14T08:31:22.750Z,63.13
2023-05-14T08:34:13.321Z,62.72
2023-05-14T08:37:07.353Z,62.16
2023-05-14T08:39:57.851Z,61.96
2023-05-14T08:42:48.951Z,62.16
2023-05-14T08:45:41.006Z,61.99
2023-05-14T08:48:36.978Z,61.84
2023-05-14T08:51:31.631Z,61.84
2023-05-14T08:54:23.862Z,62.18
2023-05-14T08:57:16.918Z,62.96
2023-05-14T09:00:12.100Z,63.53
2023-05-14T09:03:09.088Z,63.84
2023-05-14T09:06:00.555Z,64.19
2023-05-14T09:08:51.328Z,64.39
2023-05-14T09:11:44.147Z,64.78
2023-05-14T09:14:37.627Z,65.31
2023-05-14T09:17:28.861Z,65.94
2023-05-14T09:20:20.080Z,66.81
2023-05-14T09:23:10.632Z,67.08
2023-05-14T09:26:05.213Z,67.24
2023-05-14T09:28:57.171Z,67.06
2023-05-14T09:31:47.384Z,66.82
2023-05-14T09:34:38.690Z,66.39
2023-05-14T09:37:30.052Z,66.21
2023-05-14T09:40:21.364Z,65.79
2023-05-14T09:43:11.943Z,65.45
2023-05-14T09:46:02.388Z,64.89
2023-05-14T09:48:53.007Z,64.06
2023-05-14T09:51:43.458Z,62.83
2023-05-14T09:54:34.478Z,61.25
2023-05-14T09:57:24.963Z,60.09
2023-05-14T10:00:16.304Z,59.67
2023-05-14T10:03:08.183Z,58.78
2023-05-14T10:06:01.119Z,57.30
2023-05-14T10:08:55.273Z,57.54
2023-05-14T10:11:47.123Z,57.05
2023-05-14T10:14:40.498Z,57.21
2023-05-14T10:17:32.638Z,58.13
2023-05-14T10:20:24.401Z,59.04
2023-05-14T10:23:15.385Z,58.92
2023-05-14T10:26:06.623Z,59.79
2023-05-14T10:28:57.368Z,60.83
2023-05-14T10:31:49.158Z,61.36
2023-05-14T10:34:44.267Z,62.46
2023-05-14T10:37:35.011Z,63.62
2023-05-14T10:40:26.500Z,64.30
2023-05-14T10:43:17.461Z,65.07
2023-05-14T10:46:09.020Z,65.88
2023-05-14T10:49:01.813Z,65.64
2023-05-14T10:51:54.181Z,65.03
2023-05-14T10:54:47.104Z,64.91
2023-05-14T10:57:37.914Z,64.69
2023-05-14T11:00:34.546Z,64.69
2023-05-14T11:03:24.925Z,65.15
2023-05-14T11:06:18.355Z,65.46
2023-05-14T11:09:12.010Z,65.81
2023-05-14T11:12:04.461Z,66.31
2023-05-14T11:14:57.026Z,66.81
2023-05-14T11:17:48.416Z,66.55
2023-05-14T11:20:39.212Z,66.01
2023-05-14T11:23:30.142Z,65.32
2023-05-14T11:26:21.821Z,64.95
2023-05-14T11:29:12.898Z,64.67
2023-05-14T11:32:03.586Z,65.33
2023-05-14T11:34:54.345Z,66.57
2023-05-14T11:37:53.444Z,67.68
2023-05-14T11:40:44.357Z,68.48
2023-05-14T11:43:37.578Z,69.03
2023-05-14T11:46:30.238Z,69.89
2023-05-14T11:49:22.197Z,70.65
2023-05-14T11:52:14.463Z,71.17
2023-05-14T11:55:05.728Z,71.00
2023-05-14T11:57:56.413Z,71.26
2023-05-14T12:00:51.871Z,71.17
2023-05-14T12:03:43.332Z,70.97
2023-05-14T12:06:37.081Z,70.68
2023-05-14T12:09:27.936Z,70.94
2023-05-14T12:12:19.663Z,70.98
2023-05-14T12:15:14.914Z,71.29
2023-05-14T12:18:22.993Z,70.93
2023-05-14T12:21:15.008Z,70.43
2023-05-14T12:24:06.252Z,69.95
2023-05-14T12:26:57.666Z,69.56
2023-05-14T12:29:48.216Z,69.34
2023-05-14T12:32:41.094Z,68.51
2023-05-14T12:35:31.523Z,67.51
2023-05-14T12:38:22.160Z,66.43
2023-05-14T12:41:12.670Z,66.31
2023-05-14T12:44:03.805Z,66.92
2023-05-14T12:46:54.436Z,66.40
2023-05-14T12:49:45.062Z,66.32
2023-05-14T12:52:39.407Z,66.62
2023-05-14T12:55:30.750Z,66.39
2023-05-14T12:58:21.240Z,66.06
2023-05-14T13:01:11.938Z,66.04
2023-05-14T13:04:02.820Z,65.91
2023-05-14T13:06:55.520Z,66.41
2023-05-14T13:09:46.164Z,66.50
2023-05-14T13:12:40.043Z,66.31
2023-05-14T13:15:33.843Z,66.30
2023-05-14T13:18:26.976Z,66.13
2023-05-14T13:21:17.753Z,65.76
2023-05-14T13:24:10.183Z,65.53
2023-05-14T13:27:03.264Z,64.90
2023-05-14T13:29:53.618Z,64.47
2023-05-14T13:32:49.413Z,63.74
2023-05-14T13:35:49.127Z,63.57
2023-05-14T13:38:46.040Z,63.65
2023-05-14T13:41:37.968Z,63.26
2023-05-14T13:44:28.686Z,63.26
2023-05-14T13:47:22.931Z,62.86
2023-05-14T13:50:14.232Z,62.12
2023-05-14T13:53:12.526Z,61.69
2023-05-14T13:56:13.118Z,59.28
2023-05-14T13:59:03.659Z,57.95
2023-05-14T14:02:14.525Z,57.81
2023-05-14T14:05:05.587Z,57.25
2023-05-14T14:08:01.059Z,56.95
2023-05-14T14:10:58.554Z,55.16
2023-05-14T14:13:49.372Z,54.47
2023-05-14T14:16:39.975Z,53.80
2023-05-14T14:19:30.652Z,53.26
2023-05-14T14:22:21.181Z,52.00
2023-05-14T14:25:12.798Z,50.95
2023-05-14T14:28:03.861Z,49.88
2023-05-14T14:30:57.548Z,49.55
2023-05-14T14:33:50.338Z,49.25
2023-05-14T14:36:40.980Z,47.85
2023-05-14T14:39:31.626Z,46.89
2023-05-14T14:42:22.138Z,46.06
2023-05-14T14:45:16.350Z,45.43
2023-05-14T14:48:26.185Z,46.20
2023-05-14T14:51:16.681Z,46.34
2023-05-14T14:54:07.260Z,46.81
2023-05-14T14:56:57.990Z,46.57
2023-05-14T14:59:48.705Z,46.43
2023-05-14T15:02:42.124Z,45.90
2023-05-14T15:05:32.245Z,45.40
2023-05-14T15:08:24.021Z,44.84
2023-05-14T15:11:15.338Z,44.03
2023-05-14T15:14:05.774Z,43.60
2023-05-14T15:16:56.204Z,43.55
2023-05-14T15:19:46.634Z,43.98
2023-05-14T15:22:36.977Z,44.42
2023-05-14T15:25:27.735Z,44.29
2023-05-14T15:28:18.317Z,44.96
2023-05-14T15:31:08.887Z,45.27
2023-05-14T15:33:59.574Z,45.78
2023-05-14T15:36:50.073Z,46.71
2023-05-14T15:39:40.560Z,46.91
2023-05-14T15:42:31.024Z,46.86
2023-05-14T15:45:21.485Z,46.81
2023-05-14T15:48:11.948Z,47.02
2023-05-14T15:51:02.570Z,46.50
2023-05-14T15:53:53.772Z,46.62
2023-05-14T15:56:44.279Z,47.05
2023-05-14T15:59:34.739Z,47.04
2023-05-14T16:02:25.200Z,47.22
2023-05-14T16:05:16.468Z,47.38
2023-05-14T16:08:07.250Z,47.38
2023-05-14T16:10:57.743Z,47.15
2023-05-14T16:13:48.428Z,46.97
2023-05-14T16:16:39.036Z,46.16
2023-05-14T16:19:29.507Z,45.27
2023-05-14T16:22:23.152Z,44.51
2023-05-14T16:25:13.709Z,43.78
2023-05-14T16:28:04.328Z,43.66
2023-05-14T16:30:57.717Z,43.55
2023-05-14T16:33:48.270Z,44.25
2023-05-14T16:36:38.804Z,44.76
2023-05-14T16:39:29.242Z,44.84
2023-05-14T16:42:19.857Z,45.16
2023-05-14T16:45:11.910Z,44.61
2023-05-14T16:48:02.549Z,44.66
2023-05-14T16:50:53.123Z,45.12
2023-05-14T16:53:43.628Z,45.57
2023-05-14T16:56:34.260Z,45.06
2023-05-14T16:59:27.854Z,44.93
2023-05-14T17:02:18.656Z,45.58
2023-05-14T17:05:10.142Z,46.40
2023-05-14T17:08:00.710Z,47.20
2023-05-14T17:11:05.972Z,47.16
2023-05-14T17:13:56.346Z,47.02
2023-05-14T17:16:50.001Z,47.53
2023-05-14T17:19:43.582Z,47.86
2023-05-14T17:22:34.236Z,48.00
2023-05-14T17:25:35.800Z,47.66
2023-05-14T17:28:27.099Z,47.78
2023-05-14T17:31:17.948Z,48.04
2023-05-14T17:34:08.522Z,48.49
2023-05-14T17:36:59.070Z,48.85
2023-05-14T17:39:52.795Z,48.88
2023-05-14T17:42:45.539Z,49.05
2023-05-14T17:45:46.305Z,49.44
2023-05-14T17:48:44.304Z,49.81
2023-05-14T17:51:35.345Z,50.21
2023-05-14T17:54:26.127Z,50.58
2023-05-14T17:57:17.001Z,50.99
2023-05-14T18:00:11.595Z,51.38
2023-05-14T18:03:02.486Z,51.64
2023-05-14T18:05:56.745Z,51.74
2023-05-14T18:08:50.124Z,52.03
2023-05-14T18:11:40.901Z,52.01
2023-05-14T18:14:34.276Z,52.27
2023-05-14T18:17:25.020Z,51.99
2023-05-14T18:20:21.257Z,51.44
2023-05-14T18:23:11.838Z,51.51
2023-05-14T18:26:11.187Z,51.08
2023-05-14T18:29:12.778Z,50.67
2023-05-14T18:32:23.337Z,49.80
2023-05-14T18:35:23.050Z,49.20
2023-05-14T18:38:18.015Z,49.43
2023-05-14T18:41:08.564Z,49.65
2023-05-14T18:43:59.348Z,49.80
2023-05-14T18:46:49.958Z,49.81
2023-05-14T18:49:50.542Z,49.89
2023-05-14T18:52:41.464Z,50.15
2023-05-14T18:55:32.217Z,50.42
2023-05-14T18:58:22.945Z,50.60
2023-05-14T19:01:16.885Z,50.97
2023-05-14T19:04:11.954Z,51.34
2023-05-14T19:07:02.533Z,51.46
2023-05-14T19:09:53.247Z,51.59
2023-05-14T19:12:43.860Z,51.71
2023-05-14T19:15:37.019Z,51.65
2023-05-14T19:18:27.780Z,51.45
2023-05-14T19:21:20.215Z,51.50
2023-05-14T19:24:13.985Z,51.63
2023-05-14T19:27:07.601Z,51.74
2023-05-14T19:30:00.858Z,52.04
2023-05-14T19:32:51.571Z,52.28
2023-05-14T19:35:42.150Z,52.58
2023-05-14T19:38:35.085Z,52.85
2023-05-14T19:41:35.718Z,53.19
2023-05-14T19:44:29.536Z,53.33
2023-05-14T19:47:20.139Z,53.18
2023-05-14T19:50:11.552Z,53.35
2023-05-14T19:53:12.944Z,53.45
2023-05-14T19:56:06.253Z,53.52
2023-05-14T19:58:59.812Z,53.50
2023-05-14T20:01:54.814Z,53.70
2023-05-14T20:04:46.297Z,54.07
2023-05-14T20:07:40.342Z,54.21
2023-05-14T20:10:34.238Z,54.36
2023-05-14T20:13:25.381Z,54.59
2023-05-14T20:16:18.726Z,54.85
2023-05-14T20:19:29.528Z,54.68
2023-05-14T20:22:20.206Z,54.08
2023-05-14T20:25:13.791Z,53.47
2023-05-14T20:28:07.855Z,52.85
2023-05-14T20:31:04.109Z,52.86
2023-05-14T20:33:54.946Z,52.60
2023-05-14T20:36:46.087Z,52.50
2023-05-14T20:39:39.605Z,52.71
2023-05-14T20:42:30.274Z,52.47
2023-05-14T20:45:23.904Z,52.56
2023-05-14T20:48:17.769Z,52.55
2023-05-14T20:51:10.669Z,52.67
2023-05-14T20:54:21.332Z,52.85
2023-05-14T20:57:12.870Z,52.99
2023-05-14T21:00:10.055Z,53.21
2023-05-14T21:03:02.911Z,53.50
2023-05-14T21:06:00.690Z,53.82
2023-05-14T21:08:59.706Z,54.23
2023-05-14T21:12:03.050Z,54.41
2023-05-14T21:14:56.813Z,54.45
2023-05-14T21:17:57.555Z,54.58
2023-05-14T21:21:08.439Z,54.71
2023-05-14T21:24:10.400Z,54.71
2023-05-14T21:27:05.412Z,54.83
2023-05-14T21:29:59.326Z,54.96
2023-05-14T21:33:10.217Z,55.11
2023-05-14T21:36:04.206Z,54.94
2023-05-14T21:39:15.118Z,54.95
2023-05-14T21:42:06.023Z,55.05
2023-05-14T21:44:59.637Z,55.10
2023-05-14T21:47:50.392Z,55.34
2023-05-14T21:50:52.225Z,55.45
2023-05-14T21:53:55.589Z,55.66
2023-05-14T21:56:57.373Z,55.81
2023-05-14T21:59:50.440Z,56.13
2023-05-14T22:03:01.203Z,56.39
2023-05-14T22:06:12.429Z,56.66
2023-05-14T22:09:05.899Z,56.84
2023-05-14T22:12:07.345Z,57.08
2023-05-14T22:15:03.943Z,57.19
2023-05-14T22:18:06.982Z,57.48
2023-05-14T22:21:11.482Z,57.66
2023-05-14T22:24:13.511Z,58.03
2023-05-14T22:27:23.049Z,58.18
2023-05-14T22:30:34.112Z,58.50
2023-05-14T22:33:45.425Z,58.73
2023-05-14T22:36:47.298Z,59.02
2023-05-14T22:39:58.092Z,59.12
2023-05-14T22:43:02.650Z,59.15
2023-05-14T22:46:13.584Z,59.41
2023-05-14T22:49:24.342Z,59.64
2023-05-14T22:52:28.429Z,59.92
2023-05-14T22:55:39.308Z,60.05
2023-05-14T22:58:50.278Z,60.38
2023-05-14T23:02:01.048Z,60.57
2023-05-14T23:05:12.329Z,60.73
2023-05-14T23:08:23.380Z,60.86
2023-05-14T23:11:34.086Z,61.07
2023-05-14T23:14:45.282Z,61.37
2023-05-14T23:17:50.157Z,61.62
2023-05-14T23:21:01.623Z,61.76
2023-05-14T23:24:12.379Z,61.90
2023-05-14T23:27:23.646Z,62.14
2023-05-14T23:30:35.173Z,62.31
2023-05-14T23:33:47.022Z,62.40
2023-05-14T23:36:58.312Z,62.61
2023-05-14T23:40:10.746Z,62.80
2023-05-14T23:43:21.629Z,62.95
2023-05-14T23:46:32.469Z,63.27
2023-05-14T23:49:43.206Z,63.19
2023-05-14T23:52:53.235Z,63.53
2023-05-14T23:56:04.008Z,63.74
2023-05-14T23:59:15.065Z,63.87
